sensor_id;sensor_type;location;lat;lon;timestamp;temperature;humidity
29207;DHT22;16247;50.840;4.382;2023-02-28T00:01:33;2.80;99.90
29207;DHT22;16247;50.840;4.382;2023-02-28T00:07:21;2.80;99.90
29207;DHT22;16247;50.840;4.382;2023-02-28T00:13:09;2.60;99.90
29207;DHT22;16247;50.840;4.382;2023-02-28T00:15:36;2.90;99.90
29207;DHT22;16247;50.840;4.382;2023-02-28T00:18:02;2.60;99.90
29207;DHT22;16247;50.840;4.382;2023-02-28T00:20:29;2.80;99.90
29207;DHT22;16247;50.840;4.382;2023-02-28T00:22:56;2.50;99.90
29207;DHT22;16247;50.840;4.382;2023-02-28T00:25:27;2.60;99.90
29207;DHT22;16247;50.840;4.382;2023-02-28T00:27:53;2.50;99.90
29207;DHT22;16247;50.840;4.382;2023-02-28T00:30:20;2.70;99.90
29207;DHT22;16247;50.840;4.382;2023-02-28T00:32:50;2.80;99.90
29207;DHT22;16247;50.840;4.382;2023-02-28T00:35:25;2.50;99.90
29207;DHT22;16247;50.840;4.382;2023-02-28T00:38:00;2.50;99.90
29207;DHT22;16247;50.840;4.382;2023-02-28T00:40:26;2.70;99.90
29207;DHT22;16247;50.840;4.382;2023-02-28T00:42:51;2.60;99.90
29207;DHT22;16247;50.840;4.382;2023-02-28T00:45:23;2.60;99.90
29207;DHT22;16247;50.840;4.382;2023-02-28T00:47:49;2.80;99.90
29207;DHT22;16247;50.840;4.382;2023-02-28T00:50:19;2.40;99.90
29207;DHT22;16247;50.840;4.382;2023-02-28T00:52:45;2.50;99.90
29207;DHT22;16247;50.840;4.382;2023-02-28T00:55:11;2.70;99.90
29207;DHT22;16247;50.840;4.382;2023-02-28T00:57:37;2.40;99.90
29207;DHT22;16247;50.840;4.382;2023-02-28T01:00:03;2.40;99.90
29207;DHT22;16247;50.840;4.382;2023-02-28T01:02:29;2.30;99.90
29207;DHT22;16247;50.840;4.382;2023-02-28T01:04:55;2.30;99.90
29207;DHT22;16247;50.840;4.382;2023-02-28T01:07:22;2.30;99.90
29207;DHT22;16247;50.840;4.382;2023-02-28T01:09:48;2.40;99.90
29207;DHT22;16247;50.840;4.382;2023-02-28T01:12:14;2.40;99.90
29207;DHT22;16247;50.840;4.382;2023-02-28T01:14:42;2.70;99.90
29207;DHT22;16247;50.840;4.382;2023-02-28T01:17:08;2.60;99.90
29207;DHT22;16247;50.840;4.382;2023-02-28T01:19:35;2.50;99.90
29207;DHT22;16247;50.840;4.382;2023-02-28T01:22:04;2.60;99.90
29207;DHT22;16247;50.840;4.382;2023-02-28T01:24:32;2.70;99.90
29207;DHT22;16247;50.840;4.382;2023-02-28T01:26:59;2.60;99.90
29207;DHT22;16247;50.840;4.382;2023-02-28T01:29:25;2.30;99.90
29207;DHT22;16247;50.840;4.382;2023-02-28T01:31:50;2.60;99.90
29207;DHT22;16247;50.840;4.382;2023-02-28T01:34:21;2.30;99.90
29207;DHT22;16247;50.840;4.382;2023-02-28T01:36:50;2.20;99.90
29207;DHT22;16247;50.840;4.382;2023-02-28T01:39:17;2.50;99.90
29207;DHT22;16247;50.840;4.382;2023-02-28T01:41:43;2.20;99.90
29207;DHT22;16247;50.840;4.382;2023-02-28T01:47:12;2.30;99.90
29207;DHT22;16247;50.840;4.382;2023-02-28T01:49:39;2.30;99.90
29207;DHT22;16247;50.840;4.382;2023-02-28T01:52:04;2.20;99.90
29207;DHT22;16247;50.840;4.382;2023-02-28T01:54:33;2.10;99.90
29207;DHT22;16247;50.840;4.382;2023-02-28T01:57:10;2.10;99.90
29207;DHT22;16247;50.840;4.382;2023-02-28T01:59:42;2.20;99.90
29207;DHT22;16247;50.840;4.382;2023-02-28T02:02:12;2.10;99.90
29207;DHT22;16247;50.840;4.382;2023-02-28T02:05:03;2.20;99.90
29207;DHT22;16247;50.840;4.382;2023-02-28T02:07:45;2.30;99.90
29207;DHT22;16247;50.840;4.382;2023-02-28T02:10:35;1.90;99.90
29207;DHT22;16247;50.840;4.382;2023-02-28T02:13:19;2.00;99.90
29207;DHT22;16247;50.840;4.382;2023-02-28T02:30:17;2.00;99.90
29207;DHT22;16247;50.840;4.382;2023-02-28T02:33:03;1.90;99.90
29207;DHT22;16247;50.840;4.382;2023-02-28T02:39:19;1.80;99.90
29207;DHT22;16247;50.840;4.382;2023-02-28T02:41:53;2.20;99.90
29207;DHT22;16247;50.840;4.382;2023-02-28T02:44:26;2.10;99.90
29207;DHT22;16247;50.840;4.382;2023-02-28T02:47:08;2.00;99.90
29207;DHT22;16247;50.840;4.382;2023-02-28T02:49:37;1.80;99.90
29207;DHT22;16247;50.840;4.382;2023-02-28T02:52:08;1.80;99.90
29207;DHT22;16247;50.840;4.382;2023-02-28T02:54:41;1.90;99.90
29207;DHT22;16247;50.840;4.382;2023-02-28T02:57:11;1.90;99.90
29207;DHT22;16247;50.840;4.382;2023-02-28T02:59:41;1.70;99.90
29207;DHT22;16247;50.840;4.382;2023-02-28T03:02:11;1.80;99.90
29207;DHT22;16247;50.840;4.382;2023-02-28T03:04:49;1.80;99.90
29207;DHT22;16247;50.840;4.382;2023-02-28T03:07:16;1.80;99.90
29207;DHT22;16247;50.840;4.382;2023-02-28T03:09:53;1.70;99.90
29207;DHT22;16247;50.840;4.382;2023-02-28T03:12:20;1.70;99.90
29207;DHT22;16247;50.840;4.382;2023-02-28T03:14:53;1.70;99.90
29207;DHT22;16247;50.840;4.382;2023-02-28T03:23:23;2.00;99.90
29207;DHT22;16247;50.840;4.382;2023-02-28T03:26:21;1.90;99.90
29207;DHT22;16247;50.840;4.382;2023-02-28T03:29:13;1.90;99.90
29207;DHT22;16247;50.840;4.382;2023-02-28T03:31:53;1.90;99.90
29207;DHT22;16247;50.840;4.382;2023-02-28T03:34:34;2.00;99.90
29207;DHT22;16247;50.840;4.382;2023-02-28T03:37:16;1.90;99.90
29207;DHT22;16247;50.840;4.382;2023-02-28T03:39:51;1.90;99.90
29207;DHT22;16247;50.840;4.382;2023-02-28T03:45:41;1.70;99.90
29207;DHT22;16247;50.840;4.382;2023-02-28T03:48:18;2.00;99.90
29207;DHT22;16247;50.840;4.382;2023-02-28T03:50:48;1.90;99.90
29207;DHT22;16247;50.840;4.382;2023-02-28T03:53:38;1.80;99.90
29207;DHT22;16247;50.840;4.382;2023-02-28T03:56:20;1.70;99.90
29207;DHT22;16247;50.840;4.382;2023-02-28T03:59:04;1.70;99.90
29207;DHT22;16247;50.840;4.382;2023-02-28T04:01:45;1.70;99.90
29207;DHT22;16247;50.840;4.382;2023-02-28T04:04:13;1.70;99.90
29207;DHT22;16247;50.840;4.382;2023-02-28T04:06:39;1.70;99.90
29207;DHT22;16247;50.840;4.382;2023-02-28T04:09:07;1.60;99.90
29207;DHT22;16247;50.840;4.382;2023-02-28T04:11:34;1.60;99.90
29207;DHT22;16247;50.840;4.382;2023-02-28T04:14:01;1.60;99.90
29207;DHT22;16247;50.840;4.382;2023-02-28T04:16:28;1.60;99.90
29207;DHT22;16247;50.840;4.382;2023-02-28T04:18:53;1.60;99.90
29207;DHT22;16247;50.840;4.382;2023-02-28T04:21:19;1.60;99.90
29207;DHT22;16247;50.840;4.382;2023-02-28T04:23:49;1.40;99.90
29207;DHT22;16247;50.840;4.382;2023-02-28T04:26:17;1.60;99.90
29207;DHT22;16247;50.840;4.382;2023-02-28T04:28:43;1.30;99.90
29207;DHT22;16247;50.840;4.382;2023-02-28T04:31:09;1.50;99.90
29207;DHT22;16247;50.840;4.382;2023-02-28T04:33:34;1.70;99.90
29207;DHT22;16247;50.840;4.382;2023-02-28T04:36:07;1.50;99.90
29207;DHT22;16247;50.840;4.382;2023-02-28T04:38:35;1.40;99.90
29207;DHT22;16247;50.840;4.382;2023-02-28T04:41:02;1.30;99.90
29207;DHT22;16247;50.840;4.382;2023-02-28T04:43:28;1.50;99.90
29207;DHT22;16247;50.840;4.382;2023-02-28T04:45:55;1.40;99.90
29207;DHT22;16247;50.840;4.382;2023-02-28T04:48:26;1.60;99.90
29207;DHT22;16247;50.840;4.382;2023-02-28T04:50:54;1.40;99.90
29207;DHT22;16247;50.840;4.382;2023-02-28T04:53:20;1.50;99.90
29207;DHT22;16247;50.840;4.382;2023-02-28T04:55:47;1.50;99.90
29207;DHT22;16247;50.840;4.382;2023-02-28T04:58:13;1.50;99.90
29207;DHT22;16247;50.840;4.382;2023-02-28T05:00:40;1.50;99.90
29207;DHT22;16247;50.840;4.382;2023-02-28T05:03:11;1.40;99.90
29207;DHT22;16247;50.840;4.382;2023-02-28T05:08:59;1.30;99.90
29207;DHT22;16247;50.840;4.382;2023-02-28T05:11:29;1.30;99.90
29207;DHT22;16247;50.840;4.382;2023-02-28T05:14:01;1.60;99.90
29207;DHT22;16247;50.840;4.382;2023-02-28T05:20:03;1.50;99.90
29207;DHT22;16247;50.840;4.382;2023-02-28T05:22:31;1.50;99.90
29207;DHT22;16247;50.840;4.382;2023-02-28T05:24:57;1.70;99.90
29207;DHT22;16247;50.840;4.382;2023-02-28T05:27:26;1.70;99.90
29207;DHT22;16247;50.840;4.382;2023-02-28T05:29:53;1.60;99.90
29207;DHT22;16247;50.840;4.382;2023-02-28T05:32:20;1.70;99.90
29207;DHT22;16247;50.840;4.382;2023-02-28T05:34:46;1.70;99.90
29207;DHT22;16247;50.840;4.382;2023-02-28T05:37:15;1.70;99.90
29207;DHT22;16247;50.840;4.382;2023-02-28T05:39:42;1.70;99.90
29207;DHT22;16247;50.840;4.382;2023-02-28T05:42:12;1.90;99.90
29207;DHT22;16247;50.840;4.382;2023-02-28T05:44:38;1.90;99.90
29207;DHT22;16247;50.840;4.382;2023-02-28T05:47:03;1.90;99.90
29207;DHT22;16247;50.840;4.382;2023-02-28T05:49:29;2.00;99.90
29207;DHT22;16247;50.840;4.382;2023-02-28T05:51:55;1.90;99.90
29207;DHT22;16247;50.840;4.382;2023-02-28T05:54:23;2.10;99.90
29207;DHT22;16247;50.840;4.382;2023-02-28T05:56:53;2.10;99.90
29207;DHT22;16247;50.840;4.382;2023-02-28T05:59:19;2.00;99.90
29207;DHT22;16247;50.840;4.382;2023-02-28T06:01:45;2.20;99.90
29207;DHT22;16247;50.840;4.382;2023-02-28T06:04:19;2.30;99.90
29207;DHT22;16247;50.840;4.382;2023-02-28T06:06:50;2.20;99.90
29207;DHT22;16247;50.840;4.382;2023-02-28T06:09:17;2.30;99.90
29207;DHT22;16247;50.840;4.382;2023-02-28T06:11:43;2.20;99.90
29207;DHT22;16247;50.840;4.382;2023-02-28T06:14:18;2.40;99.90
29207;DHT22;16247;50.840;4.382;2023-02-28T06:16:55;2.50;99.90
29207;DHT22;16247;50.840;4.382;2023-02-28T06:19:21;2.20;99.90
29207;DHT22;16247;50.840;4.382;2023-02-28T06:22:00;2.20;99.90
29207;DHT22;16247;50.840;4.382;2023-02-28T06:24:27;2.30;99.90
29207;DHT22;16247;50.840;4.382;2023-02-28T06:26:56;2.40;99.90
29207;DHT22;16247;50.840;4.382;2023-02-28T06:29:24;2.40;99.90
29207;DHT22;16247;50.840;4.382;2023-02-28T06:31:50;2.40;99.90
29207;DHT22;16247;50.840;4.382;2023-02-28T06:34:15;2.40;99.90
29207;DHT22;16247;50.840;4.382;2023-02-28T06:36:41;2.40;99.90
29207;DHT22;16247;50.840;4.382;2023-02-28T06:39:08;2.70;99.90
29207;DHT22;16247;50.840;4.382;2023-02-28T06:41:35;2.70;99.90
29207;DHT22;16247;50.840;4.382;2023-02-28T06:44:04;2.60;99.90
29207;DHT22;16247;50.840;4.382;2023-02-28T06:46:31;2.70;99.90
29207;DHT22;16247;50.840;4.382;2023-02-28T06:48:58;2.50;99.90
29207;DHT22;16247;50.840;4.382;2023-02-28T06:51:24;2.40;99.90
29207;DHT22;16247;50.840;4.382;2023-02-28T06:53:51;2.30;99.90
29207;DHT22;16247;50.840;4.382;2023-02-28T06:56:19;2.30;99.90
29207;DHT22;16247;50.840;4.382;2023-02-28T06:58:47;2.50;99.90
29207;DHT22;16247;50.840;4.382;2023-02-28T07:01:14;2.30;99.90
29207;DHT22;16247;50.840;4.382;2023-02-28T07:03:40;2.50;99.90
29207;DHT22;16247;50.840;4.382;2023-02-28T07:06:06;2.60;99.90
29207;DHT22;16247;50.840;4.382;2023-02-28T07:08:35;2.50;99.90
29207;DHT22;16247;50.840;4.382;2023-02-28T07:11:03;2.70;99.90
29207;DHT22;16247;50.840;4.382;2023-02-28T07:13:28;2.50;99.90
29207;DHT22;16247;50.840;4.382;2023-02-28T07:16:03;2.40;99.90
29207;DHT22;16247;50.840;4.382;2023-02-28T07:18:29;2.70;99.90
29207;DHT22;16247;50.840;4.382;2023-02-28T07:20:54;2.60;99.90
29207;DHT22;16247;50.840;4.382;2023-02-28T07:23:21;2.60;99.90
29207;DHT22;16247;50.840;4.382;2023-02-28T07:25:47;2.80;99.90
29207;DHT22;16247;50.840;4.382;2023-02-28T07:28:13;2.60;99.90
29207;DHT22;16247;50.840;4.382;2023-02-28T07:30:40;2.60;99.90
29207;DHT22;16247;50.840;4.382;2023-02-28T07:33:08;2.80;99.90
29207;DHT22;16247;50.840;4.382;2023-02-28T07:35:42;2.90;99.90
29207;DHT22;16247;50.840;4.382;2023-02-28T07:38:08;3.10;99.90
29207;DHT22;16247;50.840;4.382;2023-02-28T07:40:35;3.40;99.90
29207;DHT22;16247;50.840;4.382;2023-02-28T07:43:02;3.10;99.90
29207;DHT22;16247;50.840;4.382;2023-02-28T07:45:28;3.10;99.90
29207;DHT22;16247;50.840;4.382;2023-02-28T07:47:59;3.50;99.90
29207;DHT22;16247;50.840;4.382;2023-02-28T07:50:26;3.40;99.90
29207;DHT22;16247;50.840;4.382;2023-02-28T07:52:57;3.20;99.90
29207;DHT22;16247;50.840;4.382;2023-02-28T07:55:23;3.20;99.90
29207;DHT22;16247;50.840;4.382;2023-02-28T07:57:48;3.30;99.90
29207;DHT22;16247;50.840;4.382;2023-02-28T08:00:14;3.40;99.90
29207;DHT22;16247;50.840;4.382;2023-02-28T08:02:40;3.40;99.90
29207;DHT22;16247;50.840;4.382;2023-02-28T08:05:06;3.30;99.90
29207;DHT22;16247;50.840;4.382;2023-02-28T08:07:33;3.40;99.90
29207;DHT22;16247;50.840;4.382;2023-02-28T08:10:05;3.40;99.90
29207;DHT22;16247;50.840;4.382;2023-02-28T08:12:31;3.50;99.90
29207;DHT22;16247;50.840;4.382;2023-02-28T08:14:59;3.80;99.90
29207;DHT22;16247;50.840;4.382;2023-02-28T08:17:25;3.80;99.90
29207;DHT22;16247;50.840;4.382;2023-02-28T08:19:50;4.00;99.90
29207;DHT22;16247;50.840;4.382;2023-02-28T08:22:16;4.20;99.90
29207;DHT22;16247;50.840;4.382;2023-02-28T08:24:43;4.10;99.90
29207;DHT22;16247;50.840;4.382;2023-02-28T08:27:09;4.20;99.90
29207;DHT22;16247;50.840;4.382;2023-02-28T08:29:37;4.00;99.90
29207;DHT22;16247;50.840;4.382;2023-02-28T08:32:04;3.80;99.90
29207;DHT22;16247;50.840;4.382;2023-02-28T08:34:30;4.00;99.90
29207;DHT22;16247;50.840;4.382;2023-02-28T08:36:58;3.90;99.90
29207;DHT22;16247;50.840;4.382;2023-02-28T08:39:24;4.30;99.90
29207;DHT22;16247;50.840;4.382;2023-02-28T08:41:49;4.50;99.90
29207;DHT22;16247;50.840;4.382;2023-02-28T08:44:15;4.30;99.90
29207;DHT22;16247;50.840;4.382;2023-02-28T08:46:42;4.60;99.90
29207;DHT22;16247;50.840;4.382;2023-02-28T08:49:10;4.60;99.90
29207;DHT22;16247;50.840;4.382;2023-02-28T08:51:35;4.40;99.90
29207;DHT22;16247;50.840;4.382;2023-02-28T08:54:01;4.50;99.90
29207;DHT22;16247;50.840;4.382;2023-02-28T08:56:28;4.50;99.90
29207;DHT22;16247;50.840;4.382;2023-02-28T08:58:55;4.40;99.90
29207;DHT22;16247;50.840;4.382;2023-02-28T09:01:28;4.00;99.90
29207;DHT22;16247;50.840;4.382;2023-02-28T09:03:56;4.30;99.90
29207;DHT22;16247;50.840;4.382;2023-02-28T09:06:26;4.30;99.90
29207;DHT22;16247;50.840;4.382;2023-02-28T09:08:51;4.60;99.90
29207;DHT22;16247;50.840;4.382;2023-02-28T09:11:19;4.50;99.90
29207;DHT22;16247;50.840;4.382;2023-02-28T09:13:46;4.50;99.90
29207;DHT22;16247;50.840;4.382;2023-02-28T09:16:15;4.80;99.90
29207;DHT22;16247;50.840;4.382;2023-02-28T09:18:42;4.70;99.90
29207;DHT22;16247;50.840;4.382;2023-02-28T09:21:10;4.70;99.90
29207;DHT22;16247;50.840;4.382;2023-02-28T09:23:40;4.90;99.90
29207;DHT22;16247;50.840;4.382;2023-02-28T09:26:07;4.80;99.90
29207;DHT22;16247;50.840;4.382;2023-02-28T09:28:33;5.10;99.90
29207;DHT22;16247;50.840;4.382;2023-02-28T09:30:59;5.00;99.90
29207;DHT22;16247;50.840;4.382;2023-02-28T09:33:26;4.90;99.90
29207;DHT22;16247;50.840;4.382;2023-02-28T09:35:58;4.90;99.90
29207;DHT22;16247;50.840;4.382;2023-02-28T09:38:27;5.00;99.90
29207;DHT22;16247;50.840;4.382;2023-02-28T09:40:56;4.90;99.90
29207;DHT22;16247;50.840;4.382;2023-02-28T09:43:34;5.20;99.90
29207;DHT22;16247;50.840;4.382;2023-02-28T09:46:27;5.30;99.90
29207;DHT22;16247;50.840;4.382;2023-02-28T09:48:54;5.10;99.90
29207;DHT22;16247;50.840;4.382;2023-02-28T09:53:56;5.30;99.90
29207;DHT22;16247;50.840;4.382;2023-02-28T09:56:36;5.20;99.90
29207;DHT22;16247;50.840;4.382;2023-02-28T09:59:28;5.40;99.90
29207;DHT22;16247;50.840;4.382;2023-02-28T10:02:24;5.50;99.90
29207;DHT22;16247;50.840;4.382;2023-02-28T10:05:00;5.70;99.90
29207;DHT22;16247;50.840;4.382;2023-02-28T10:08:22;5.50;99.90
29207;DHT22;16247;50.840;4.382;2023-02-28T10:10:41;5.40;99.90
29207;DHT22;16247;50.840;4.382;2023-02-28T10:13:50;5.50;99.90
29207;DHT22;16247;50.840;4.382;2023-02-28T10:16:06;5.40;99.90
29207;DHT22;16247;50.840;4.382;2023-02-28T10:18:46;5.50;99.90
29207;DHT22;16247;50.840;4.382;2023-02-28T10:21:41;5.50;99.90
29207;DHT22;16247;50.840;4.382;2023-02-28T10:24:34;6.00;99.90
29207;DHT22;16247;50.840;4.382;2023-02-28T10:27:23;5.50;99.90
29207;DHT22;16247;50.840;4.382;2023-02-28T10:29:51;5.70;99.90
29207;DHT22;16247;50.840;4.382;2023-02-28T10:32:24;5.80;99.90
29207;DHT22;16247;50.840;4.382;2023-02-28T10:37:47;5.60;99.90
29207;DHT22;16247;50.840;4.382;2023-02-28T10:45:38;6.20;99.90
29207;DHT22;16247;50.840;4.382;2023-02-28T10:56:19;6.20;99.90
29207;DHT22;16247;50.840;4.382;2023-02-28T10:59:03;6.20;99.90
29207;DHT22;16247;50.840;4.382;2023-02-28T11:01:42;6.40;99.90
29207;DHT22;16247;50.840;4.382;2023-02-28T11:04:36;6.50;99.90
29207;DHT22;16247;50.840;4.382;2023-02-28T11:07:26;6.40;99.90
29207;DHT22;16247;50.840;4.382;2023-02-28T11:09:55;6.50;99.90
29207;DHT22;16247;50.840;4.382;2023-02-28T11:15:19;6.50;99.90
29207;DHT22;16247;50.840;4.382;2023-02-28T11:20:28;6.40;99.90
29207;DHT22;16247;50.840;4.382;2023-02-28T11:22:57;6.70;99.90
29207;DHT22;16247;50.840;4.382;2023-02-28T11:25:31;6.70;99.90
29207;DHT22;16247;50.840;4.382;2023-02-28T11:28:23;6.50;99.90
29207;DHT22;16247;50.840;4.382;2023-02-28T11:33:41;6.60;99.90
29207;DHT22;16247;50.840;4.382;2023-02-28T11:36:20;6.50;99.90
29207;DHT22;16247;50.840;4.382;2023-02-28T11:38:48;6.50;99.90
29207;DHT22;16247;50.840;4.382;2023-02-28T11:47:06;6.50;99.90
29207;DHT22;16247;50.840;4.382;2023-02-28T12:12:29;6.90;99.90
29207;DHT22;16247;50.840;4.382;2023-02-28T12:25:38;7.10;99.90
29207;DHT22;16247;50.840;4.382;2023-02-28T12:28:13;7.10;99.90
29207;DHT22;16247;50.840;4.382;2023-02-28T12:30:50;7.20;99.90
29207;DHT22;16247;50.840;4.382;2023-02-28T12:33:33;7.20;99.90
29207;DHT22;16247;50.840;4.382;2023-02-28T12:36:07;7.40;99.90
29207;DHT22;16247;50.840;4.382;2023-02-28T12:38:44;7.30;99.90
29207;DHT22;16247;50.840;4.382;2023-02-28T12:41:14;7.30;99.90
29207;DHT22;16247;50.840;4.382;2023-02-28T12:43:48;7.40;99.90
29207;DHT22;16247;50.840;4.382;2023-02-28T12:46:21;7.40;99.90
29207;DHT22;16247;50.840;4.382;2023-02-28T12:48:58;7.70;99.90
29207;DHT22;16247;50.840;4.382;2023-02-28T12:51:26;7.60;99.90
29207;DHT22;16247;50.840;4.382;2023-02-28T12:54:07;7.60;99.90
29207;DHT22;16247;50.840;4.382;2023-02-28T12:56:56;7.40;99.90
29207;DHT22;16247;50.840;4.382;2023-02-28T12:59:56;7.40;99.90
29207;DHT22;16247;50.840;4.382;2023-02-28T13:10:48;7.40;99.90
29207;DHT22;16247;50.840;4.382;2023-02-28T13:13:24;7.40;99.90
29207;DHT22;16247;50.840;4.382;2023-02-28T13:16:02;7.40;99.90
29207;DHT22;16247;50.840;4.382;2023-02-28T13:18:38;7.60;99.90
29207;DHT22;16247;50.840;4.382;2023-02-28T13:21:08;7.60;99.90
29207;DHT22;16247;50.840;4.382;2023-02-28T13:26:16;8.60;99.90
29207;DHT22;16247;50.840;4.382;2023-02-28T13:28:59;9.40;99.90
29207;DHT22;16247;50.840;4.382;2023-02-28T13:31:26;9.70;99.90
29207;DHT22;16247;50.840;4.382;2023-02-28T13:36:29;10.10;99.90
29207;DHT22;16247;50.840;4.382;2023-02-28T13:39:01;10.40;99.90
29207;DHT22;16247;50.840;4.382;2023-02-28T13:46:27;10.70;98.30
29207;DHT22;16247;50.840;4.382;2023-02-28T13:48:55;10.80;98.10
29207;DHT22;16247;50.840;4.382;2023-02-28T13:51:40;10.20;97.40
29207;DHT22;16247;50.840;4.382;2023-02-28T13:57:18;9.00;98.70
29207;DHT22;16247;50.840;4.382;2023-02-28T14:05:19;8.40;99.20
29207;DHT22;16247;50.840;4.382;2023-02-28T14:07:57;8.30;99.20
29207;DHT22;16247;50.840;4.382;2023-02-28T14:10:30;8.50;99.70
29207;DHT22;16247;50.840;4.382;2023-02-28T14:15:49;8.80;99.00
29207;DHT22;16247;50.840;4.382;2023-02-28T14:18:32;9.20;99.10
29207;DHT22;16247;50.840;4.382;2023-02-28T14:21:21;8.90;99.10
29207;DHT22;16247;50.840;4.382;2023-02-28T14:37:54;8.80;99.30
29207;DHT22;16247;50.840;4.382;2023-02-28T14:40:33;8.50;99.40
29207;DHT22;16247;50.840;4.382;2023-02-28T14:43:03;8.60;99.50
29207;DHT22;16247;50.840;4.382;2023-02-28T14:45:35;8.20;99.50
29207;DHT22;16247;50.840;4.382;2023-02-28T14:48:05;8.10;99.70
29207;DHT22;16247;50.840;4.382;2023-02-28T14:50:37;8.00;99.80
29207;DHT22;16247;50.840;4.382;2023-02-28T14:53:09;8.10;99.90
29207;DHT22;16247;50.840;4.382;2023-02-28T14:55:45;8.20;99.90
29207;DHT22;16247;50.840;4.382;2023-02-28T14:58:32;7.80;99.90
29207;DHT22;16247;50.840;4.382;2023-02-28T15:01:02;7.60;99.90
29207;DHT22;16247;50.840;4.382;2023-02-28T15:03:33;7.70;99.90
29207;DHT22;16247;50.840;4.382;2023-02-28T15:06:12;7.80;99.90
29207;DHT22;16247;50.840;4.382;2023-02-28T15:08:42;7.80;99.90
29207;DHT22;16247;50.840;4.382;2023-02-28T15:11:19;8.00;99.90
29207;DHT22;16247;50.840;4.382;2023-02-28T15:13:52;7.90;99.90
29207;DHT22;16247;50.840;4.382;2023-02-28T15:16:31;7.70;99.90
29207;DHT22;16247;50.840;4.382;2023-02-28T15:19:05;7.50;99.90
29207;DHT22;16247;50.840;4.382;2023-02-28T15:21:41;7.50;99.90
29207;DHT22;16247;50.840;4.382;2023-02-28T15:24:37;7.60;99.90
29207;DHT22;16247;50.840;4.382;2023-02-28T15:27:27;7.60;99.90
29207;DHT22;16247;50.840;4.382;2023-02-28T15:29:59;7.50;99.90
29207;DHT22;16247;50.840;4.382;2023-02-28T15:32:36;7.60;99.90
29207;DHT22;16247;50.840;4.382;2023-02-28T15:35:30;7.60;99.90
29207;DHT22;16247;50.840;4.382;2023-02-28T15:40:45;7.50;99.90
29207;DHT22;16247;50.840;4.382;2023-02-28T15:46:13;7.50;99.90
29207;DHT22;16247;50.840;4.382;2023-02-28T15:48:57;7.30;99.90
29207;DHT22;16247;50.840;4.382;2023-02-28T15:51:42;7.40;99.90
29207;DHT22;16247;50.840;4.382;2023-02-28T15:54:14;7.40;99.90
29207;DHT22;16247;50.840;4.382;2023-02-28T15:56:46;7.40;99.90
29207;DHT22;16247;50.840;4.382;2023-02-28T15:59:27;7.60;99.90
29207;DHT22;16247;50.840;4.382;2023-02-28T16:02:22;7.80;99.90
29207;DHT22;16247;50.840;4.382;2023-02-28T16:07:37;8.30;99.90
29207;DHT22;16247;50.840;4.382;2023-02-28T16:10:06;8.70;99.90
29207;DHT22;16247;50.840;4.382;2023-02-28T16:12:36;8.20;99.90
29207;DHT22;16247;50.840;4.382;2023-02-28T16:15:17;8.40;99.90
29207;DHT22;16247;50.840;4.382;2023-02-28T16:17:44;8.40;99.90
29207;DHT22;16247;50.840;4.382;2023-02-28T16:20:16;8.50;99.90
29207;DHT22;16247;50.840;4.382;2023-02-28T16:22:49;8.50;99.90
29207;DHT22;16247;50.840;4.382;2023-02-28T16:28:38;8.20;99.90
29207;DHT22;16247;50.840;4.382;2023-02-28T16:31:13;8.10;99.90
29207;DHT22;16247;50.840;4.382;2023-02-28T16:33:46;7.70;99.90
29207;DHT22;16247;50.840;4.382;2023-02-28T16:36:17;7.80;99.90
29207;DHT22;16247;50.840;4.382;2023-02-28T16:38:44;7.50;99.90
29207;DHT22;16247;50.840;4.382;2023-02-28T16:41:14;7.20;99.90
29207;DHT22;16247;50.840;4.382;2023-02-28T16:43:47;7.30;99.90
29207;DHT22;16247;50.840;4.382;2023-02-28T16:46:13;6.90;99.90
29207;DHT22;16247;50.840;4.382;2023-02-28T16:48:40;6.80;99.90
29207;DHT22;16247;50.840;4.382;2023-02-28T16:51:10;6.80;99.90
29207;DHT22;16247;50.840;4.382;2023-02-28T16:53:36;6.80;99.90
29207;DHT22;16247;50.840;4.382;2023-02-28T16:56:02;7.00;99.90
29207;DHT22;16247;50.840;4.382;2023-02-28T16:58:29;6.70;99.90
29207;DHT22;16247;50.840;4.382;2023-02-28T17:00:55;6.50;99.90
29207;DHT22;16247;50.840;4.382;2023-02-28T17:03:25;6.70;99.90
29207;DHT22;16247;50.840;4.382;2023-02-28T17:05:51;6.60;99.90
29207;DHT22;16247;50.840;4.382;2023-02-28T17:08:16;6.50;99.90
29207;DHT22;16247;50.840;4.382;2023-02-28T17:10:44;6.30;99.90
29207;DHT22;16247;50.840;4.382;2023-02-28T17:13:10;6.30;99.90
29207;DHT22;16247;50.840;4.382;2023-02-28T17:15:37;6.30;99.90
29207;DHT22;16247;50.840;4.382;2023-02-28T17:18:04;6.40;99.90
29207;DHT22;16247;50.840;4.382;2023-02-28T17:20:30;6.20;99.90
29207;DHT22;16247;50.840;4.382;2023-02-28T17:22:57;6.10;99.90
29207;DHT22;16247;50.840;4.382;2023-02-28T17:25:26;6.10;99.90
29207;DHT22;16247;50.840;4.382;2023-02-28T17:27:52;6.10;99.90
29207;DHT22;16247;50.840;4.382;2023-02-28T17:30:24;6.00;99.90
29207;DHT22;16247;50.840;4.382;2023-02-28T17:32:50;6.10;99.90
29207;DHT22;16247;50.840;4.382;2023-02-28T17:35:15;6.10;99.90
29207;DHT22;16247;50.840;4.382;2023-02-28T17:37:42;6.20;99.90
29207;DHT22;16247;50.840;4.382;2023-02-28T17:40:29;6.10;99.90
29207;DHT22;16247;50.840;4.382;2023-02-28T17:42:55;6.00;99.90
29207;DHT22;16247;50.840;4.382;2023-02-28T17:45:23;5.90;99.90
29207;DHT22;16247;50.840;4.382;2023-02-28T17:47:52;5.90;99.90
29207;DHT22;16247;50.840;4.382;2023-02-28T17:50:21;5.90;99.90
29207;DHT22;16247;50.840;4.382;2023-02-28T17:52:50;5.80;99.90
29207;DHT22;16247;50.840;4.382;2023-02-28T17:55:16;5.80;99.90
29207;DHT22;16247;50.840;4.382;2023-02-28T17:57:45;5.80;99.90
29207;DHT22;16247;50.840;4.382;2023-02-28T18:03:37;5.60;99.90
29207;DHT22;16247;50.840;4.382;2023-02-28T18:06:06;5.50;99.90
29207;DHT22;16247;50.840;4.382;2023-02-28T18:08:32;5.50;99.90
29207;DHT22;16247;50.840;4.382;2023-02-28T18:11:00;5.50;99.90
29207;DHT22;16247;50.840;4.382;2023-02-28T18:13:29;5.30;99.90
29207;DHT22;16247;50.840;4.382;2023-02-28T18:15:58;5.20;99.90
29207;DHT22;16247;50.840;4.382;2023-02-28T18:18:27;5.60;99.90
29207;DHT22;16247;50.840;4.382;2023-02-28T18:20:59;5.70;99.90
29207;DHT22;16247;50.840;4.382;2023-02-28T18:23:27;5.90;99.90
29207;DHT22;16247;50.840;4.382;2023-02-28T18:26:06;5.80;99.90
29207;DHT22;16247;50.840;4.382;2023-02-28T18:28:36;5.90;99.90
29207;DHT22;16247;50.840;4.382;2023-02-28T18:31:14;6.00;99.90
29207;DHT22;16247;50.840;4.382;2023-02-28T18:33:41;6.00;99.90
29207;DHT22;16247;50.840;4.382;2023-02-28T18:36:07;5.90;99.90
29207;DHT22;16247;50.840;4.382;2023-02-28T18:38:33;5.90;99.90
29207;DHT22;16247;50.840;4.382;2023-02-28T18:41:20;5.90;99.90
29207;DHT22;16247;50.840;4.382;2023-02-28T18:43:56;6.10;99.90
29207;DHT22;16247;50.840;4.382;2023-02-28T18:46:21;6.20;99.90
29207;DHT22;16247;50.840;4.382;2023-02-28T18:48:47;6.20;99.90
29207;DHT22;16247;50.840;4.382;2023-02-28T18:51:16;6.10;99.90
29207;DHT22;16247;50.840;4.382;2023-02-28T18:53:42;6.30;99.90
29207;DHT22;16247;50.840;4.382;2023-02-28T18:56:11;6.20;99.90
29207;DHT22;16247;50.840;4.382;2023-02-28T18:58:38;6.20;99.90
29207;DHT22;16247;50.840;4.382;2023-02-28T19:01:16;6.50;99.90